createdAt,value
2019-01-04T00:02:38.251Z,99157.41
2019-01-04T00:07:44.714Z,99153.95
2019-01-04T00:12:51.863Z,99160.09
2019-01-04T00:17:58.532Z,99151.40
2019-01-04T00:23:05.142Z,99148.73
2019-01-04T00:28:11.755Z,99134.95
2019-01-04T00:33:18.425Z,99133.66
2019-01-04T00:38:25.899Z,99121.12
2019-01-04T00:43:32.648Z,99131.08
2019-01-04T00:48:39.011Z,99138.36
2019-01-04T00:53:45.656Z,99133.98
2019-01-04T00:59:22.796Z,99137.53
2019-01-04T01:04:59.981Z,99147.05
2019-01-04T01:10:50.332Z,99150.05
2019-01-04T01:16:47.604Z,99167.42
2019-01-04T01:22:58.513Z,99163.47
2019-01-04T01:29:03.960Z,99173.43
2019-01-04T01:34:51.280Z,99180.33
2019-01-04T01:40:27.639Z,99168.03
2019-01-04T01:46:10.970Z,99166.84
2019-01-04T01:51:40.694Z,99170.69
2019-01-04T01:56:47.076Z,99166.48
2019-01-04T02:01:53.625Z,99173.82
2019-01-04T02:06:59.919Z,99172.05
2019-01-04T02:12:06.429Z,99169.06
2019-01-04T02:17:13.045Z,99177.34
2019-01-04T02:22:19.519Z,99184.50
2019-01-04T02:27:25.989Z,99192.84
2019-01-04T02:32:32.870Z,99184.20
2019-01-04T02:37:38.974Z,99183.59
2019-01-04T02:42:45.278Z,99188.83
2019-01-04T02:47:52.818Z,99185.89
2019-01-04T02:52:59.176Z,99180.74
2019-01-04T02:58:05.915Z,99182.41
2019-01-04T03:03:12.552Z,99169.75
2019-01-04T03:08:19.241Z,99169.39
2019-01-04T03:13:26.290Z,99171.63
2019-01-04T03:18:32.705Z,99170.28
2019-01-04T03:23:40.207Z,99173.30
2019-01-04T03:28:46.762Z,99164.80
2019-01-04T03:33:54.479Z,99148.84
2019-01-04T03:39:00.803Z,99138.81
2019-01-04T03:44:08.355Z,99138.44
2019-01-04T03:49:14.718Z,99128.09
2019-01-04T03:54:21.070Z,99138.52
2019-01-04T03:59:27.416Z,99131.23
2019-01-04T04:04:33.883Z,99129.56
2019-01-04T04:09:40.395Z,99127.78
2019-01-04T04:14:46.934Z,99125.27
2019-01-04T04:19:53.483Z,99119.27
2019-01-04T04:24:59.886Z,99114.92
2019-01-04T04:30:06.545Z,99116.66
2019-01-04T04:35:12.804Z,99120.52
2019-01-04T04:40:19.164Z,99114.89
2019-01-04T04:45:25.473Z,99104.59
2019-01-04T04:50:32.184Z,99104.64
2019-01-04T04:55:38.576Z,99112.95
2019-01-04T05:00:44.855Z,99111.66
2019-01-04T05:05:51.045Z,99103.80
2019-01-04T05:10:57.367Z,99102.20
2019-01-04T05:16:04.867Z,99098.41
2019-01-04T05:21:11.303Z,99093.23
2019-01-04T05:26:17.724Z,99085.95
2019-01-04T05:31:24.244Z,99083.36
2019-01-04T05:36:31.613Z,99082.61
2019-01-04T05:41:38.557Z,99083.89
2019-01-04T05:46:44.989Z,99079.97
2019-01-04T05:51:51.588Z,99086.03
2019-01-04T05:56:57.906Z,99073.92
2019-01-04T06:02:04.909Z,99073.45
2019-01-04T06:07:11.218Z,99074.77
2019-01-04T06:12:17.761Z,99077.34
2019-01-04T06:17:24.211Z,99074.28
2019-01-04T06:22:30.758Z,99076.84
2019-01-04T06:27:37.267Z,99082.50
2019-01-04T06:32:43.609Z,99087.70
2019-01-04T06:37:50.214Z,99086.36
2019-01-04T06:42:56.445Z,99086.37
2019-01-04T06:48:03.261Z,99090.28
2019-01-04T06:53:09.927Z,99096.75
2019-01-04T06:58:16.105Z,99091.08
2019-01-04T07:03:22.765Z,99094.56
2019-01-04T07:08:29.456Z,99107.15
2019-01-04T07:13:36.272Z,99119.69
2019-01-04T07:18:42.651Z,99121.40
2019-01-04T07:23:49.310Z,99125.70
2019-01-04T07:28:57.405Z,99120.13
2019-01-04T07:34:03.844Z,99140.82
2019-01-04T07:39:10.079Z,99124.34
2019-01-04T07:44:16.633Z,99142.50
2019-01-04T07:49:22.915Z,99134.17
2019-01-04T07:54:29.251Z,99128.52
2019-01-04T07:59:35.941Z,99125.34
2019-01-04T08:04:42.539Z,99132.09
2019-01-04T08:09:48.893Z,99136.23
2019-01-04T08:14:55.941Z,99131.42
2019-01-04T08:20:02.986Z,99122.61
2019-01-04T08:25:10.676Z,99129.84
2019-01-04T08:30:21.191Z,99135.05
2019-01-04T08:35:27.751Z,99117.02
2019-01-04T08:40:34.361Z,99116.36
2019-01-04T08:45:40.970Z,99107.42
2019-01-04T08:50:47.634Z,99105.30
2019-01-04T08:55:54.416Z,99077.40
2019-01-04T09:01:00.842Z,99062.62
2019-01-04T09:06:07.363Z,99057.94
2019-01-04T09:11:13.949Z,99051.19
2019-01-04T09:16:20.658Z,99047.60
2019-01-04T09:21:27.415Z,99042.02
2019-01-04T09:26:34.282Z,99037.11
2019-01-04T09:31:40.653Z,99042.18
2019-01-04T09:36:47.403Z,99044.94
2019-01-04T09:42:13.608Z,99065.11
2019-01-04T09:47:20.308Z,99066.26
2019-01-04T09:52:26.682Z,99067.48
2019-01-04T09:57:33.518Z,99040.87
2019-01-04T10:02:41.317Z,99020.70
2019-01-04T10:07:47.496Z,99002.16
2019-01-04T10:12:54.887Z,98994.32
2019-01-04T10:18:01.593Z,98995.05
2019-01-04T10:23:08.004Z,98986.16
2019-01-04T10:28:14.367Z,98983.56
2019-01-04T10:33:20.588Z,98969.39
2019-01-04T10:38:26.988Z,98949.94
2019-01-04T10:43:33.262Z,98944.84
2019-01-04T10:48:39.631Z,98938.33
2019-01-04T10:53:45.701Z,98916.37
2019-01-04T10:58:51.993Z,98906.64
2019-01-04T11:03:58.460Z,98899.23
2019-01-04T11:09:06.959Z,98888.50
2019-01-04T11:14:13.971Z,98890.59
2019-01-04T11:19:20.789Z,98879.56
2019-01-04T11:24:56.619Z,98883.21
2019-01-04T11:30:23.474Z,98867.50
2019-01-04T11:35:42.462Z,98855.43
2019-01-04T11:41:30.098Z,98859.26
2019-01-04T11:47:05.364Z,98834.14
2019-01-04T11:52:22.806Z,98838.18
2019-01-04T11:57:28.864Z,98832.31
2019-01-04T12:02:35.229Z,98819.17
2019-01-04T12:07:41.675Z,98815.26
2019-01-04T12:12:50.304Z,98803.78
2019-01-04T12:17:56.578Z,98808.20
2019-01-04T12:23:02.768Z,98796.86
2019-01-04T12:28:09.031Z,98786.61
2019-01-04T12:33:15.583Z,98784.14
2019-01-04T12:38:21.813Z,98772.34
2019-01-04T12:43:28.183Z,98774.86
2019-01-04T12:48:34.617Z,98771.96
2019-01-04T12:53:40.924Z,98774.57
2019-01-04T12:58:47.564Z,98764.81
2019-01-04T13:03:55.704Z,98757.53
2019-01-04T13:09:02.588Z,98725.58
2019-01-04T13:14:10.063Z,98723.72
2019-01-04T13:19:16.724Z,98717.34
2019-01-04T13:24:23.028Z,98721.73
2019-01-04T13:29:29.711Z,98716.80
2019-01-04T13:34:36.436Z,98729.14
2019-01-04T13:39:42.957Z,98734.36
2019-01-04T13:44:49.285Z,98708.41
2019-01-04T13:49:58.280Z,98689.91
2019-01-04T13:55:04.535Z,98702.61
2019-01-04T14:00:11.596Z,98696.69
2019-01-04T14:05:17.735Z,98678.17
2019-01-04T14:10:24.007Z,98672.80
2019-01-04T14:15:30.754Z,98680.50
2019-01-04T14:20:37.326Z,98676.84
2019-01-04T14:25:43.728Z,98671.64
2019-01-04T14:30:49.964Z,98673.72
2019-01-04T14:35:57.659Z,98654.45
2019-01-04T14:41:04.155Z,98652.90
2019-01-04T14:46:10.510Z,98664.59
2019-01-04T14:51:16.984Z,98678.41
2019-01-04T14:56:23.297Z,98663.11
2019-01-04T15:01:29.753Z,98649.46
2019-01-04T15:06:36.722Z,98652.98
2019-01-04T15:11:42.889Z,98666.22
2019-01-04T15:16:49.502Z,98653.84
2019-01-04T15:21:56.583Z,98631.48
2019-01-04T15:27:02.867Z,98627.20
2019-01-04T15:32:09.355Z,98635.01
2019-01-04T15:37:17.493Z,98634.28
2019-01-04T15:42:23.969Z,98624.37
2019-01-04T15:47:30.270Z,98624.52
2019-01-04T15:52:36.567Z,98625.83
2019-01-04T15:57:42.933Z,98626.52
2019-01-04T16:02:49.324Z,98633.89
2019-01-04T16:07:55.912Z,98645.02
2019-01-04T16:13:02.549Z,98648.38
2019-01-04T16:18:09.018Z,98638.63
2019-01-04T16:23:15.439Z,98638.50
2019-01-04T16:28:21.750Z,98620.47
2019-01-04T16:33:28.890Z,98613.47
2019-01-04T16:38:35.564Z,98602.62
2019-01-04T16:43:42.243Z,98601.64
2019-01-04T16:48:48.525Z,98583.39
2019-01-04T16:53:54.807Z,98566.53
2019-01-04T16:59:01.671Z,98565.93
2019-01-04T17:04:07.932Z,98547.04
2019-01-04T17:09:14.186Z,98533.30
2019-01-04T17:14:20.240Z,98535.41
2019-01-04T17:19:26.841Z,98524.27
2019-01-04T17:24:33.335Z,98524.31
2019-01-04T17:29:39.741Z,98526.55
2019-01-04T17:34:46.255Z,98538.55
2019-01-04T17:39:52.517Z,98531.79
2019-01-04T17:44:59.117Z,98534.84
2019-01-04T17:50:06.249Z,98535.74
2019-01-04T17:55:12.730Z,98532.66
2019-01-04T18:00:19.235Z,98522.15
2019-01-04T18:05:25.654Z,98517.60
2019-01-04T18:10:32.380Z,98519.94
2019-01-04T18:15:38.922Z,98514.48
2019-01-04T18:20:45.501Z,98522.97
2019-01-04T18:25:51.965Z,98520.10
2019-01-04T18:31:01.178Z,98521.96
2019-01-04T18:36:08.365Z,98524.51
2019-01-04T18:41:14.696Z,98531.23
2019-01-04T18:46:20.971Z,98525.70
2019-01-04T18:51:27.527Z,98530.47
2019-01-04T18:56:35.645Z,98530.77
2019-01-04T19:01:43.482Z,98531.47
2019-01-04T19:06:49.735Z,98536.36
2019-01-04T19:11:56.550Z,98555.32
2019-01-04T19:17:04.176Z,98551.88
2019-01-04T19:22:10.697Z,98554.23
2019-01-04T19:27:17.298Z,98562.86
2019-01-04T19:32:23.702Z,98557.56
2019-01-04T19:37:30.000Z,98555.75
2019-01-04T19:42:37.585Z,98552.31
2019-01-04T19:47:44.630Z,98552.77
2019-01-04T19:52:51.976Z,98547.91
2019-01-04T19:57:58.832Z,98544.35
2019-01-04T20:03:05.500Z,98538.00
2019-01-04T20:09:03.444Z,98542.92
2019-01-04T20:15:28.350Z,98537.81
2019-01-04T20:20:55.002Z,98523.84
2019-01-04T20:26:18.923Z,98537.08
2019-01-04T20:31:48.414Z,98534.23
2019-01-04T20:37:12.758Z,98531.61
2019-01-04T20:42:36.914Z,98529.42
2019-01-04T20:48:01.339Z,98537.36
2019-01-04T20:53:25.507Z,98518.52
2019-01-04T20:58:56.819Z,98512.25
2019-01-04T21:04:25.214Z,98517.22
2019-01-04T21:10:02.432Z,98514.15
2019-01-04T21:15:26.956Z,98516.67
2019-01-04T21:21:01.529Z,98517.29
2019-01-04T21:26:27.675Z,98506.86
2019-01-04T21:31:51.706Z,98498.06
2019-01-04T21:37:20.130Z,98495.61
2019-01-04T21:42:54.689Z,98500.19
2019-01-04T21:48:18.780Z,98496.89
2019-01-04T21:53:42.566Z,98487.53
2019-01-04T21:59:08.371Z,98488.09
2019-01-04T22:04:30.586Z,98466.59
2019-01-04T22:09:59.826Z,98453.30
2019-01-04T22:15:23.928Z,98455.17
2019-01-04T22:20:48.172Z,98451.31
2019-01-04T22:26:12.289Z,98443.33
2019-01-04T22:31:37.562Z,98434.80
2019-01-04T22:36:56.844Z,98436.70
2019-01-04T22:42:25.047Z,98430.70
2019-01-04T22:47:49.611Z,98432.26
2019-01-04T22:53:13.799Z,98427.99
2019-01-04T22:58:34.635Z,98429.22
2019-01-04T23:04:15.234Z,98427.66
2019-01-04T23:09:39.163Z,98420.48
2019-01-04T23:15:19.900Z,98419.17
2019-01-04T23:20:49.908Z,98421.22
2019-01-04T23:26:19.333Z,98405.39
2019-01-04T23:31:39.457Z,98394.40
2019-01-04T23:37:10.791Z,98390.50
2019-01-04T23:42:35.062Z,98379.84
2019-01-04T23:47:59.085Z,98371.65
2019-01-04T23:53:22.884Z,98354.60
2019-01-04T23:58:56.702Z,98352.72
